sensor_id;sensor_type;location;lat;lon;timestamp;P1;durP1;ratioP1;P2;durP2;ratioP2
21444;SDS011;10883;51.946;20.140;2023-04-24T00:00:10;39.75;;;21.25;;
21444;SDS011;10883;51.946;20.140;2023-04-24T00:02:40;37.75;;;20.08;;
21444;SDS011;10883;51.946;20.140;2023-04-24T00:05:11;38.85;;;21.58;;
21444;SDS011;10883;51.946;20.140;2023-04-24T00:07:39;47.05;;;20.42;;
21444;SDS011;10883;51.946;20.140;2023-04-24T00:10:05;41.40;;;21.50;;
21444;SDS011;10883;51.946;20.140;2023-04-24T00:12:32;41.60;;;20.90;;
21444;SDS011;10883;51.946;20.140;2023-04-24T00:14:58;39.75;;;21.52;;
21444;SDS011;10883;51.946;20.140;2023-04-24T00:17:24;39.72;;;20.65;;
21444;SDS011;10883;51.946;20.140;2023-04-24T00:19:50;38.72;;;21.83;;
21444;SDS011;10883;51.946;20.140;2023-04-24T00:22:16;36.47;;;20.83;;
21444;SDS011;10883;51.946;20.140;2023-04-24T00:24:42;36.22;;;19.70;;
21444;SDS011;10883;51.946;20.140;2023-04-24T00:27:08;40.75;;;20.33;;
21444;SDS011;10883;51.946;20.140;2023-04-24T00:29:34;32.58;;;18.50;;
21444;SDS011;10883;51.946;20.140;2023-04-24T00:32:00;33.47;;;18.60;;
21444;SDS011;10883;51.946;20.140;2023-04-24T00:34:26;37.17;;;19.48;;
21444;SDS011;10883;51.946;20.140;2023-04-24T00:36:51;31.73;;;18.17;;
21444;SDS011;10883;51.946;20.140;2023-04-24T00:39:20;34.97;;;18.63;;
21444;SDS011;10883;51.946;20.140;2023-04-24T00:41:47;34.63;;;19.75;;
21444;SDS011;10883;51.946;20.140;2023-04-24T00:44:14;34.58;;;19.45;;
21444;SDS011;10883;51.946;20.140;2023-04-24T00:46:40;35.13;;;17.40;;
21444;SDS011;10883;51.946;20.140;2023-04-24T00:49:07;39.20;;;18.90;;
21444;SDS011;10883;51.946;20.140;2023-04-24T00:51:33;30.70;;;16.88;;
21444;SDS011;10883;51.946;20.140;2023-04-24T00:53:59;32.72;;;17.45;;
21444;SDS011;10883;51.946;20.140;2023-04-24T00:56:26;30.55;;;17.85;;
21444;SDS011;10883;51.946;20.140;2023-04-24T00:58:53;37.72;;;19.02;;
21444;SDS011;10883;51.946;20.140;2023-04-24T01:01:19;40.92;;;21.55;;
21444;SDS011;10883;51.946;20.140;2023-04-24T01:03:46;33.97;;;18.25;;
21444;SDS011;10883;51.946;20.140;2023-04-24T01:06:15;32.60;;;17.55;;
21444;SDS011;10883;51.946;20.140;2023-04-24T01:08:41;36.25;;;17.48;;
21444;SDS011;10883;51.946;20.140;2023-04-24T01:11:06;29.13;;;17.10;;
21444;SDS011;10883;51.946;20.140;2023-04-24T01:13:32;29.70;;;16.80;;
21444;SDS011;10883;51.946;20.140;2023-04-24T01:15:59;31.40;;;16.70;;
21444;SDS011;10883;51.946;20.140;2023-04-24T01:18:26;34.13;;;19.23;;
21444;SDS011;10883;51.946;20.140;2023-04-24T01:20:53;39.42;;;21.17;;
21444;SDS011;10883;51.946;20.140;2023-04-24T01:23:21;46.25;;;22.63;;
21444;SDS011;10883;51.946;20.140;2023-04-24T01:25:47;36.25;;;21.55;;
21444;SDS011;10883;51.946;20.140;2023-04-24T01:28:14;34.05;;;19.15;;
21444;SDS011;10883;51.946;20.140;2023-04-24T01:30:41;41.53;;;19.27;;
21444;SDS011;10883;51.946;20.140;2023-04-24T01:33:07;28.73;;;17.25;;
21444;SDS011;10883;51.946;20.140;2023-04-24T01:35:33;28.63;;;18.35;;
21444;SDS011;10883;51.946;20.140;2023-04-24T01:38:01;32.50;;;18.88;;
21444;SDS011;10883;51.946;20.140;2023-04-24T01:40:27;30.98;;;18.42;;
21444;SDS011;10883;51.946;20.140;2023-04-24T01:42:53;29.95;;;17.80;;
21444;SDS011;10883;51.946;20.140;2023-04-24T01:45:19;30.83;;;18.48;;
21444;SDS011;10883;51.946;20.140;2023-04-24T01:47:45;33.42;;;17.17;;
21444;SDS011;10883;51.946;20.140;2023-04-24T01:50:11;29.77;;;16.05;;
21444;SDS011;10883;51.946;20.140;2023-04-24T01:52:37;26.63;;;16.80;;
21444;SDS011;10883;51.946;20.140;2023-04-24T01:55:04;29.73;;;16.67;;
21444;SDS011;10883;51.946;20.140;2023-04-24T01:57:30;31.15;;;16.55;;
21444;SDS011;10883;51.946;20.140;2023-04-24T01:59:57;26.75;;;16.08;;
21444;SDS011;10883;51.946;20.140;2023-04-24T02:02:23;22.33;;;14.52;;
21444;SDS011;10883;51.946;20.140;2023-04-24T02:04:49;24.48;;;14.70;;
21444;SDS011;10883;51.946;20.140;2023-04-24T02:07:15;24.23;;;15.32;;
21444;SDS011;10883;51.946;20.140;2023-04-24T02:09:41;28.40;;;15.60;;
21444;SDS011;10883;51.946;20.140;2023-04-24T02:12:07;24.85;;;15.32;;
21444;SDS011;10883;51.946;20.140;2023-04-24T02:14:33;26.38;;;14.85;;
21444;SDS011;10883;51.946;20.140;2023-04-24T02:16:59;27.25;;;15.60;;
21444;SDS011;10883;51.946;20.140;2023-04-24T02:19:25;27.02;;;15.50;;
21444;SDS011;10883;51.946;20.140;2023-04-24T02:21:51;26.75;;;15.43;;
21444;SDS011;10883;51.946;20.140;2023-04-24T02:24:17;28.52;;;15.18;;
21444;SDS011;10883;51.946;20.140;2023-04-24T02:26:43;25.48;;;14.52;;
21444;SDS011;10883;51.946;20.140;2023-04-24T02:29:09;25.95;;;15.27;;
21444;SDS011;10883;51.946;20.140;2023-04-24T02:31:35;24.88;;;13.65;;
21444;SDS011;10883;51.946;20.140;2023-04-24T02:34:01;22.33;;;14.30;;
21444;SDS011;10883;51.946;20.140;2023-04-24T02:36:26;23.92;;;14.23;;
21444;SDS011;10883;51.946;20.140;2023-04-24T02:38:52;24.98;;;14.13;;
21444;SDS011;10883;51.946;20.140;2023-04-24T02:41:18;27.58;;;14.65;;
21444;SDS011;10883;51.946;20.140;2023-04-24T02:43:45;26.15;;;15.77;;
21444;SDS011;10883;51.946;20.140;2023-04-24T02:46:10;24.58;;;14.45;;
21444;SDS011;10883;51.946;20.140;2023-04-24T02:48:36;24.02;;;15.30;;
21444;SDS011;10883;51.946;20.140;2023-04-24T02:51:02;25.00;;;15.60;;
21444;SDS011;10883;51.946;20.140;2023-04-24T02:53:28;27.20;;;14.45;;
21444;SDS011;10883;51.946;20.140;2023-04-24T02:55:55;22.65;;;14.65;;
21444;SDS011;10883;51.946;20.140;2023-04-24T02:58:21;23.83;;;15.98;;
21444;SDS011;10883;51.946;20.140;2023-04-24T03:00:47;23.33;;;15.25;;
21444;SDS011;10883;51.946;20.140;2023-04-24T03:03:13;24.55;;;15.77;;
21444;SDS011;10883;51.946;20.140;2023-04-24T03:05:40;25.10;;;15.57;;
21444;SDS011;10883;51.946;20.140;2023-04-24T03:08:06;23.45;;;14.80;;
21444;SDS011;10883;51.946;20.140;2023-04-24T03:10:31;27.92;;;16.08;;
21444;SDS011;10883;51.946;20.140;2023-04-24T03:12:57;22.92;;;15.52;;
21444;SDS011;10883;51.946;20.140;2023-04-24T03:15:23;32.13;;;18.38;;
21444;SDS011;10883;51.946;20.140;2023-04-24T03:17:49;26.67;;;14.73;;
21444;SDS011;10883;51.946;20.140;2023-04-24T03:20:14;22.15;;;16.25;;
21444;SDS011;10883;51.946;20.140;2023-04-24T03:22:40;25.98;;;16.35;;
21444;SDS011;10883;51.946;20.140;2023-04-24T03:25:06;21.48;;;14.80;;
21444;SDS011;10883;51.946;20.140;2023-04-24T03:27:34;26.90;;;16.52;;
21444;SDS011;10883;51.946;20.140;2023-04-24T03:30:00;26.20;;;16.90;;
21444;SDS011;10883;51.946;20.140;2023-04-24T03:32:26;26.65;;;16.58;;
21444;SDS011;10883;51.946;20.140;2023-04-24T03:34:52;28.10;;;17.27;;
21444;SDS011;10883;51.946;20.140;2023-04-24T03:37:18;33.47;;;20.20;;
21444;SDS011;10883;51.946;20.140;2023-04-24T03:39:44;40.42;;;21.67;;
21444;SDS011;10883;51.946;20.140;2023-04-24T03:42:09;30.52;;;18.08;;
21444;SDS011;10883;51.946;20.140;2023-04-24T03:44:35;40.92;;;22.25;;
21444;SDS011;10883;51.946;20.140;2023-04-24T03:47:01;30.58;;;18.73;;
21444;SDS011;10883;51.946;20.140;2023-04-24T03:49:27;28.80;;;18.20;;
21444;SDS011;10883;51.946;20.140;2023-04-24T03:51:53;38.47;;;20.15;;
21444;SDS011;10883;51.946;20.140;2023-04-24T03:54:19;35.42;;;19.08;;
21444;SDS011;10883;51.946;20.140;2023-04-24T03:56:45;29.55;;;17.17;;
21444;SDS011;10883;51.946;20.140;2023-04-24T03:59:11;29.70;;;17.60;;
21444;SDS011;10883;51.946;20.140;2023-04-24T04:01:36;36.45;;;18.75;;
21444;SDS011;10883;51.946;20.140;2023-04-24T04:04:03;27.95;;;17.42;;
21444;SDS011;10883;51.946;20.140;2023-04-24T04:06:29;32.50;;;17.10;;
21444;SDS011;10883;51.946;20.140;2023-04-24T04:08:58;25.55;;;16.90;;
21444;SDS011;10883;51.946;20.140;2023-04-24T04:11:24;25.65;;;16.13;;
21444;SDS011;10883;51.946;20.140;2023-04-24T04:13:50;29.25;;;16.90;;
21444;SDS011;10883;51.946;20.140;2023-04-24T04:16:16;25.15;;;15.00;;
21444;SDS011;10883;51.946;20.140;2023-04-24T04:18:45;22.27;;;14.55;;
21444;SDS011;10883;51.946;20.140;2023-04-24T04:21:11;21.70;;;14.75;;
21444;SDS011;10883;51.946;20.140;2023-04-24T04:23:37;24.27;;;15.30;;
21444;SDS011;10883;51.946;20.140;2023-04-24T04:26:03;22.60;;;14.30;;
21444;SDS011;10883;51.946;20.140;2023-04-24T04:28:30;24.40;;;14.98;;
21444;SDS011;10883;51.946;20.140;2023-04-24T04:30:56;29.30;;;16.20;;
21444;SDS011;10883;51.946;20.140;2023-04-24T04:33:23;28.27;;;15.00;;
21444;SDS011;10883;51.946;20.140;2023-04-24T04:35:49;20.40;;;14.20;;
21444;SDS011;10883;51.946;20.140;2023-04-24T04:38:18;24.17;;;14.05;;
21444;SDS011;10883;51.946;20.140;2023-04-24T04:40:45;23.60;;;13.48;;
21444;SDS011;10883;51.946;20.140;2023-04-24T04:43:11;23.60;;;14.40;;
21444;SDS011;10883;51.946;20.140;2023-04-24T04:45:40;27.48;;;15.23;;
21444;SDS011;10883;51.946;20.140;2023-04-24T04:48:08;25.02;;;13.98;;
21444;SDS011;10883;51.946;20.140;2023-04-24T04:50:37;20.92;;;14.32;;
21444;SDS011;10883;51.946;20.140;2023-04-24T04:53:03;25.17;;;14.15;;
21444;SDS011;10883;51.946;20.140;2023-04-24T04:55:29;21.50;;;14.90;;
21444;SDS011;10883;51.946;20.140;2023-04-24T04:57:55;20.63;;;14.38;;
21444;SDS011;10883;51.946;20.140;2023-04-24T05:00:21;23.83;;;14.75;;
21444;SDS011;10883;51.946;20.140;2023-04-24T05:02:50;21.70;;;14.02;;
21444;SDS011;10883;51.946;20.140;2023-04-24T05:05:16;19.90;;;13.30;;
21444;SDS011;10883;51.946;20.140;2023-04-24T05:07:42;22.45;;;14.23;;
21444;SDS011;10883;51.946;20.140;2023-04-24T05:10:09;21.98;;;14.43;;
21444;SDS011;10883;51.946;20.140;2023-04-24T05:12:35;24.83;;;14.00;;
21444;SDS011;10883;51.946;20.140;2023-04-24T05:15:01;20.13;;;13.88;;
21444;SDS011;10883;51.946;20.140;2023-04-24T05:17:27;22.27;;;13.52;;
21444;SDS011;10883;51.946;20.140;2023-04-24T05:19:53;20.42;;;13.25;;
21444;SDS011;10883;51.946;20.140;2023-04-24T05:22:19;22.98;;;13.93;;
21444;SDS011;10883;51.946;20.140;2023-04-24T05:24:46;21.77;;;14.10;;
21444;SDS011;10883;51.946;20.140;2023-04-24T05:27:12;24.67;;;15.38;;
21444;SDS011;10883;51.946;20.140;2023-04-24T05:29:38;18.40;;;13.32;;
21444;SDS011;10883;51.946;20.140;2023-04-24T05:32:05;22.48;;;13.70;;
21444;SDS011;10883;51.946;20.140;2023-04-24T05:34:31;21.15;;;13.35;;
21444;SDS011;10883;51.946;20.140;2023-04-24T05:36:57;21.73;;;13.68;;
21444;SDS011;10883;51.946;20.140;2023-04-24T05:39:23;18.40;;;13.55;;
21444;SDS011;10883;51.946;20.140;2023-04-24T05:41:50;27.90;;;15.13;;
21444;SDS011;10883;51.946;20.140;2023-04-24T05:44:16;36.38;;;20.27;;
21444;SDS011;10883;51.946;20.140;2023-04-24T05:46:42;69.97;;;37.45;;
21444;SDS011;10883;51.946;20.140;2023-04-24T05:49:07;61.07;;;33.53;;
21444;SDS011;10883;51.946;20.140;2023-04-24T05:51:33;31.48;;;19.00;;
21444;SDS011;10883;51.946;20.140;2023-04-24T05:53:59;22.95;;;14.50;;
21444;SDS011;10883;51.946;20.140;2023-04-24T05:56:26;21.77;;;13.20;;
21444;SDS011;10883;51.946;20.140;2023-04-24T05:58:52;19.77;;;11.68;;
21444;SDS011;10883;51.946;20.140;2023-04-24T06:01:17;21.83;;;12.25;;
21444;SDS011;10883;51.946;20.140;2023-04-24T06:03:44;17.75;;;11.10;;
21444;SDS011;10883;51.946;20.140;2023-04-24T06:06:10;24.65;;;11.75;;
21444;SDS011;10883;51.946;20.140;2023-04-24T06:08:36;17.00;;;10.70;;
21444;SDS011;10883;51.946;20.140;2023-04-24T06:11:02;16.70;;;10.05;;
21444;SDS011;10883;51.946;20.140;2023-04-24T06:13:27;15.85;;;9.20;;
21444;SDS011;10883;51.946;20.140;2023-04-24T06:15:53;20.75;;;10.85;;
21444;SDS011;10883;51.946;20.140;2023-04-24T06:18:19;17.42;;;10.95;;
21444;SDS011;10883;51.946;20.140;2023-04-24T06:20:45;17.67;;;12.82;;
21444;SDS011;10883;51.946;20.140;2023-04-24T06:23:11;24.67;;;13.90;;
21444;SDS011;10883;51.946;20.140;2023-04-24T06:25:37;20.67;;;14.45;;
21444;SDS011;10883;51.946;20.140;2023-04-24T06:28:04;20.70;;;13.38;;
21444;SDS011;10883;51.946;20.140;2023-04-24T06:30:30;19.02;;;12.85;;
21444;SDS011;10883;51.946;20.140;2023-04-24T06:32:56;18.00;;;11.80;;
21444;SDS011;10883;51.946;20.140;2023-04-24T06:35:22;15.93;;;10.68;;
21444;SDS011;10883;51.946;20.140;2023-04-24T06:37:47;16.10;;;10.95;;
21444;SDS011;10883;51.946;20.140;2023-04-24T06:40:13;18.88;;;10.32;;
21444;SDS011;10883;51.946;20.140;2023-04-24T06:42:39;14.75;;;11.02;;
21444;SDS011;10883;51.946;20.140;2023-04-24T06:45:05;20.17;;;11.13;;
21444;SDS011;10883;51.946;20.140;2023-04-24T06:47:31;15.68;;;10.10;;
21444;SDS011;10883;51.946;20.140;2023-04-24T06:49:57;18.80;;;11.18;;
21444;SDS011;10883;51.946;20.140;2023-04-24T06:52:23;15.85;;;10.98;;
21444;SDS011;10883;51.946;20.140;2023-04-24T06:54:49;21.02;;;12.07;;
21444;SDS011;10883;51.946;20.140;2023-04-24T06:57:15;17.10;;;11.82;;
21444;SDS011;10883;51.946;20.140;2023-04-24T06:59:41;18.20;;;11.68;;
21444;SDS011;10883;51.946;20.140;2023-04-24T07:02:07;20.65;;;12.52;;
21444;SDS011;10883;51.946;20.140;2023-04-24T07:04:33;18.00;;;12.38;;
21444;SDS011;10883;51.946;20.140;2023-04-24T07:06:59;19.02;;;11.57;;
21444;SDS011;10883;51.946;20.140;2023-04-24T07:09:26;18.20;;;11.73;;
21444;SDS011;10883;51.946;20.140;2023-04-24T07:11:52;18.75;;;10.80;;
21444;SDS011;10883;51.946;20.140;2023-04-24T07:14:18;20.25;;;11.45;;
21444;SDS011;10883;51.946;20.140;2023-04-24T07:16:44;18.02;;;12.00;;
21444;SDS011;10883;51.946;20.140;2023-04-24T07:19:10;21.38;;;12.98;;
21444;SDS011;10883;51.946;20.140;2023-04-24T07:21:37;23.58;;;13.82;;
21444;SDS011;10883;51.946;20.140;2023-04-24T07:24:03;26.85;;;13.95;;
21444;SDS011;10883;51.946;20.140;2023-04-24T07:26:29;27.30;;;12.55;;
21444;SDS011;10883;51.946;20.140;2023-04-24T07:28:55;18.58;;;11.73;;
21444;SDS011;10883;51.946;20.140;2023-04-24T07:31:21;19.67;;;10.82;;
21444;SDS011;10883;51.946;20.140;2023-04-24T07:33:47;18.67;;;10.40;;
21444;SDS011;10883;51.946;20.140;2023-04-24T07:36:13;16.75;;;10.20;;
21444;SDS011;10883;51.946;20.140;2023-04-24T07:38:43;14.90;;;10.60;;
21444;SDS011;10883;51.946;20.140;2023-04-24T07:41:12;15.10;;;10.18;;
21444;SDS011;10883;51.946;20.140;2023-04-24T07:43:39;16.05;;;10.82;;
21444;SDS011;10883;51.946;20.140;2023-04-24T07:46:05;16.05;;;10.52;;
21444;SDS011;10883;51.946;20.140;2023-04-24T07:48:32;16.77;;;11.00;;
21444;SDS011;10883;51.946;20.140;2023-04-24T07:50:58;14.38;;;10.23;;
21444;SDS011;10883;51.946;20.140;2023-04-24T07:53:23;11.43;;;7.60;;
21444;SDS011;10883;51.946;20.140;2023-04-24T07:55:49;11.90;;;7.80;;
21444;SDS011;10883;51.946;20.140;2023-04-24T07:58:15;11.57;;;7.50;;
21444;SDS011;10883;51.946;20.140;2023-04-24T08:00:41;10.80;;;7.57;;
21444;SDS011;10883;51.946;20.140;2023-04-24T08:03:07;16.02;;;8.63;;
21444;SDS011;10883;51.946;20.140;2023-04-24T08:05:33;12.82;;;8.93;;
21444;SDS011;10883;51.946;20.140;2023-04-24T08:07:58;12.30;;;8.50;;
21444;SDS011;10883;51.946;20.140;2023-04-24T08:10:24;11.73;;;8.57;;
21444;SDS011;10883;51.946;20.140;2023-04-24T08:12:51;13.00;;;8.20;;
21444;SDS011;10883;51.946;20.140;2023-04-24T08:15:17;13.07;;;9.88;;
21444;SDS011;10883;51.946;20.140;2023-04-24T08:17:43;13.85;;;9.98;;
21444;SDS011;10883;51.946;20.140;2023-04-24T08:20:09;13.40;;;8.25;;
21444;SDS011;10883;51.946;20.140;2023-04-24T08:22:41;11.75;;;7.95;;
21444;SDS011;10883;51.946;20.140;2023-04-24T08:25:10;11.95;;;7.30;;
21444;SDS011;10883;51.946;20.140;2023-04-24T08:27:36;12.70;;;7.82;;
21444;SDS011;10883;51.946;20.140;2023-04-24T08:30:03;13.43;;;8.05;;
21444;SDS011;10883;51.946;20.140;2023-04-24T08:32:29;12.90;;;8.18;;
21444;SDS011;10883;51.946;20.140;2023-04-24T08:34:56;13.98;;;9.50;;
21444;SDS011;10883;51.946;20.140;2023-04-24T08:37:26;13.43;;;8.30;;
21444;SDS011;10883;51.946;20.140;2023-04-24T08:39:52;12.27;;;8.20;;
21444;SDS011;10883;51.946;20.140;2023-04-24T08:42:18;10.65;;;6.55;;
21444;SDS011;10883;51.946;20.140;2023-04-24T08:44:46;6.82;;;5.22;;
21444;SDS011;10883;51.946;20.140;2023-04-24T08:47:14;5.47;;;4.43;;
21444;SDS011;10883;51.946;20.140;2023-04-24T08:49:41;9.02;;;4.72;;
21444;SDS011;10883;51.946;20.140;2023-04-24T08:52:07;10.60;;;5.45;;
21444;SDS011;10883;51.946;20.140;2023-04-24T08:54:34;8.10;;;6.10;;
21444;SDS011;10883;51.946;20.140;2023-04-24T08:57:01;7.25;;;5.38;;
21444;SDS011;10883;51.946;20.140;2023-04-24T08:59:29;9.93;;;5.75;;
21444;SDS011;10883;51.946;20.140;2023-04-24T09:01:55;10.30;;;5.68;;
21444;SDS011;10883;51.946;20.140;2023-04-24T09:04:22;7.85;;;5.57;;
21444;SDS011;10883;51.946;20.140;2023-04-24T09:06:54;10.52;;;6.55;;
21444;SDS011;10883;51.946;20.140;2023-04-24T09:09:22;6.18;;;5.03;;
21444;SDS011;10883;51.946;20.140;2023-04-24T09:11:49;7.05;;;4.45;;
21444;SDS011;10883;51.946;20.140;2023-04-24T09:14:16;6.38;;;4.88;;
21444;SDS011;10883;51.946;20.140;2023-04-24T09:16:42;5.80;;;5.07;;
21444;SDS011;10883;51.946;20.140;2023-04-24T09:19:08;9.30;;;4.88;;
21444;SDS011;10883;51.946;20.140;2023-04-24T09:21:34;6.57;;;4.70;;
21444;SDS011;10883;51.946;20.140;2023-04-24T09:24:01;9.07;;;5.68;;
21444;SDS011;10883;51.946;20.140;2023-04-24T09:26:29;7.90;;;5.22;;
21444;SDS011;10883;51.946;20.140;2023-04-24T09:28:59;7.22;;;5.25;;
21444;SDS011;10883;51.946;20.140;2023-04-24T09:31:27;7.53;;;5.72;;
21444;SDS011;10883;51.946;20.140;2023-04-24T09:33:55;8.63;;;6.10;;
21444;SDS011;10883;51.946;20.140;2023-04-24T09:36:37;7.78;;;4.70;;
21444;SDS011;10883;51.946;20.140;2023-04-24T09:39:08;7.95;;;5.35;;
21444;SDS011;10883;51.946;20.140;2023-04-24T09:41:43;7.85;;;5.38;;
21444;SDS011;10883;51.946;20.140;2023-04-24T09:44:11;9.27;;;5.07;;
21444;SDS011;10883;51.946;20.140;2023-04-24T09:46:39;6.47;;;5.25;;
21444;SDS011;10883;51.946;20.140;2023-04-24T09:49:09;8.43;;;5.00;;
21444;SDS011;10883;51.946;20.140;2023-04-24T09:51:37;8.25;;;5.35;;
21444;SDS011;10883;51.946;20.140;2023-04-24T09:54:04;11.77;;;6.35;;
21444;SDS011;10883;51.946;20.140;2023-04-24T09:56:35;8.38;;;5.75;;
21444;SDS011;10883;51.946;20.140;2023-04-24T09:59:05;8.38;;;5.55;;
21444;SDS011;10883;51.946;20.140;2023-04-24T10:01:32;8.02;;;5.72;;
21444;SDS011;10883;51.946;20.140;2023-04-24T10:03:58;7.43;;;5.15;;
21444;SDS011;10883;51.946;20.140;2023-04-24T10:06:34;10.05;;;5.38;;
21444;SDS011;10883;51.946;20.140;2023-04-24T10:09:01;6.90;;;5.00;;
21444;SDS011;10883;51.946;20.140;2023-04-24T10:11:28;8.05;;;5.22;;
21444;SDS011;10883;51.946;20.140;2023-04-24T10:13:55;10.05;;;5.10;;
21444;SDS011;10883;51.946;20.140;2023-04-24T10:16:22;11.82;;;5.75;;
21444;SDS011;10883;51.946;20.140;2023-04-24T10:18:49;7.70;;;4.45;;
21444;SDS011;10883;51.946;20.140;2023-04-24T10:21:19;7.47;;;5.00;;
21444;SDS011;10883;51.946;20.140;2023-04-24T10:23:45;8.32;;;4.25;;
21444;SDS011;10883;51.946;20.140;2023-04-24T10:26:14;7.20;;;3.80;;
21444;SDS011;10883;51.946;20.140;2023-04-24T10:28:45;4.75;;;4.07;;
21444;SDS011;10883;51.946;20.140;2023-04-24T10:31:12;6.53;;;4.35;;
21444;SDS011;10883;51.946;20.140;2023-04-24T10:33:42;6.10;;;4.22;;
21444;SDS011;10883;51.946;20.140;2023-04-24T10:36:10;5.85;;;4.75;;
21444;SDS011;10883;51.946;20.140;2023-04-24T10:38:39;9.18;;;4.53;;
21444;SDS011;10883;51.946;20.140;2023-04-24T10:41:12;6.10;;;4.10;;
21444;SDS011;10883;51.946;20.140;2023-04-24T10:43:44;6.68;;;4.55;;
21444;SDS011;10883;51.946;20.140;2023-04-24T10:46:11;7.53;;;4.18;;
21444;SDS011;10883;51.946;20.140;2023-04-24T10:48:51;6.60;;;4.20;;
21444;SDS011;10883;51.946;20.140;2023-04-24T10:51:21;6.82;;;4.30;;
21444;SDS011;10883;51.946;20.140;2023-04-24T10:53:47;5.15;;;3.75;;
21444;SDS011;10883;51.946;20.140;2023-04-24T10:56:17;5.70;;;4.47;;
21444;SDS011;10883;51.946;20.140;2023-04-24T10:58:49;4.65;;;3.90;;
21444;SDS011;10883;51.946;20.140;2023-04-24T11:01:23;4.03;;;3.45;;
21444;SDS011;10883;51.946;20.140;2023-04-24T11:03:55;11.38;;;4.30;;
21444;SDS011;10883;51.946;20.140;2023-04-24T11:06:55;5.68;;;3.75;;
21444;SDS011;10883;51.946;20.140;2023-04-24T11:09:17;6.70;;;3.88;;
21444;SDS011;10883;51.946;20.140;2023-04-24T11:11:46;6.50;;;4.30;;
21444;SDS011;10883;51.946;20.140;2023-04-24T11:14:15;5.32;;;3.60;;
21444;SDS011;10883;51.946;20.140;2023-04-24T11:16:43;7.28;;;4.10;;
21444;SDS011;10883;51.946;20.140;2023-04-24T11:24:29;5.93;;;3.97;;
21444;SDS011;10883;51.946;20.140;2023-04-24T11:26:59;10.45;;;4.93;;
21444;SDS011;10883;51.946;20.140;2023-04-24T11:34:55;5.75;;;4.38;;
21444;SDS011;10883;51.946;20.140;2023-04-24T11:37:24;9.43;;;4.90;;
21444;SDS011;10883;51.946;20.140;2023-04-24T11:39:55;7.03;;;4.50;;
21444;SDS011;10883;51.946;20.140;2023-04-24T11:42:22;8.55;;;5.15;;
21444;SDS011;10883;51.946;20.140;2023-04-24T11:44:49;7.57;;;4.32;;
21444;SDS011;10883;51.946;20.140;2023-04-24T11:47:17;5.80;;;4.57;;
21444;SDS011;10883;51.946;20.140;2023-04-24T11:49:43;6.93;;;4.90;;
21444;SDS011;10883;51.946;20.140;2023-04-24T11:52:08;5.88;;;3.90;;
21444;SDS011;10883;51.946;20.140;2023-04-24T11:54:35;7.75;;;3.80;;
21444;SDS011;10883;51.946;20.140;2023-04-24T11:57:05;6.68;;;4.45;;
21444;SDS011;10883;51.946;20.140;2023-04-24T11:59:35;8.32;;;4.22;;
21444;SDS011;10883;51.946;20.140;2023-04-24T12:02:02;6.88;;;4.70;;
21444;SDS011;10883;51.946;20.140;2023-04-24T12:04:37;8.30;;;4.72;;
21444;SDS011;10883;51.946;20.140;2023-04-24T12:07:06;9.35;;;5.78;;
21444;SDS011;10883;51.946;20.140;2023-04-24T12:12:09;8.93;;;5.50;;
21444;SDS011;10883;51.946;20.140;2023-04-24T12:14:49;7.60;;;4.97;;
21444;SDS011;10883;51.946;20.140;2023-04-24T12:17:26;6.35;;;4.88;;
21444;SDS011;10883;51.946;20.140;2023-04-24T12:19:57;7.68;;;4.75;;
21444;SDS011;10883;51.946;20.140;2023-04-24T12:22:27;4.85;;;4.35;;
21444;SDS011;10883;51.946;20.140;2023-04-24T12:25:17;5.88;;;4.03;;
21444;SDS011;10883;51.946;20.140;2023-04-24T12:27:44;5.97;;;4.00;;
21444;SDS011;10883;51.946;20.140;2023-04-24T12:30:13;5.88;;;3.80;;
21444;SDS011;10883;51.946;20.140;2023-04-24T12:32:45;5.00;;;3.33;;
21444;SDS011;10883;51.946;20.140;2023-04-24T12:35:23;3.85;;;3.08;;
21444;SDS011;10883;51.946;20.140;2023-04-24T12:37:51;8.45;;;3.03;;
21444;SDS011;10883;51.946;20.140;2023-04-24T12:40:17;8.95;;;4.30;;
21444;SDS011;10883;51.946;20.140;2023-04-24T12:42:50;4.03;;;3.35;;
21444;SDS011;10883;51.946;20.140;2023-04-24T12:45:17;3.17;;;2.78;;
21444;SDS011;10883;51.946;20.140;2023-04-24T12:47:44;3.83;;;3.42;;
21444;SDS011;10883;51.946;20.140;2023-04-24T12:50:12;4.00;;;3.15;;
21444;SDS011;10883;51.946;20.140;2023-04-24T12:52:40;4.05;;;3.63;;
21444;SDS011;10883;51.946;20.140;2023-04-24T12:55:07;4.70;;;3.90;;
21444;SDS011;10883;51.946;20.140;2023-04-24T12:57:33;5.80;;;3.65;;
21444;SDS011;10883;51.946;20.140;2023-04-24T13:00:00;3.63;;;3.33;;
21444;SDS011;10883;51.946;20.140;2023-04-24T13:02:27;6.75;;;3.83;;
21444;SDS011;10883;51.946;20.140;2023-04-24T13:04:55;7.57;;;3.85;;
21444;SDS011;10883;51.946;20.140;2023-04-24T13:07:22;6.07;;;3.90;;
21444;SDS011;10883;51.946;20.140;2023-04-24T13:09:48;6.57;;;3.85;;
21444;SDS011;10883;51.946;20.140;2023-04-24T13:12:15;6.88;;;4.10;;
21444;SDS011;10883;51.946;20.140;2023-04-24T13:14:42;6.40;;;3.50;;
21444;SDS011;10883;51.946;20.140;2023-04-24T13:17:07;5.07;;;3.88;;
21444;SDS011;10883;51.946;20.140;2023-04-24T13:19:38;6.00;;;3.88;;
21444;SDS011;10883;51.946;20.140;2023-04-24T13:22:05;4.93;;;3.40;;
21444;SDS011;10883;51.946;20.140;2023-04-24T13:24:32;6.07;;;3.70;;
21444;SDS011;10883;51.946;20.140;2023-04-24T13:26:58;4.22;;;3.38;;
21444;SDS011;10883;51.946;20.140;2023-04-24T13:29:25;4.03;;;3.20;;
21444;SDS011;10883;51.946;20.140;2023-04-24T13:31:51;4.80;;;3.60;;
21444;SDS011;10883;51.946;20.140;2023-04-24T13:34:19;3.88;;;3.28;;
21444;SDS011;10883;51.946;20.140;2023-04-24T13:36:45;4.03;;;3.38;;
21444;SDS011;10883;51.946;20.140;2023-04-24T13:39:11;5.68;;;3.70;;
21444;SDS011;10883;51.946;20.140;2023-04-24T13:41:37;6.10;;;3.90;;
21444;SDS011;10883;51.946;20.140;2023-04-24T13:44:03;8.18;;;4.60;;
21444;SDS011;10883;51.946;20.140;2023-04-24T13:46:29;5.25;;;4.43;;
21444;SDS011;10883;51.946;20.140;2023-04-24T13:48:56;3.70;;;2.88;;
21444;SDS011;10883;51.946;20.140;2023-04-24T13:51:23;4.57;;;2.85;;
21444;SDS011;10883;51.946;20.140;2023-04-24T13:53:51;6.35;;;4.20;;
21444;SDS011;10883;51.946;20.140;2023-04-24T13:56:18;12.68;;;3.50;;
21444;SDS011;10883;51.946;20.140;2023-04-24T13:58:43;3.47;;;2.90;;
21444;SDS011;10883;51.946;20.140;2023-04-24T14:01:09;4.55;;;3.08;;
21444;SDS011;10883;51.946;20.140;2023-04-24T14:03:36;6.88;;;3.65;;
21444;SDS011;10883;51.946;20.140;2023-04-24T14:06:03;4.65;;;2.95;;
21444;SDS011;10883;51.946;20.140;2023-04-24T14:08:28;4.97;;;2.97;;
21444;SDS011;10883;51.946;20.140;2023-04-24T14:10:54;5.18;;;2.90;;
21444;SDS011;10883;51.946;20.140;2023-04-24T14:13:20;4.00;;;2.92;;
21444;SDS011;10883;51.946;20.140;2023-04-24T14:15:46;3.13;;;2.83;;
21444;SDS011;10883;51.946;20.140;2023-04-24T14:18:12;4.03;;;3.50;;
21444;SDS011;10883;51.946;20.140;2023-04-24T14:20:38;5.45;;;3.00;;
21444;SDS011;10883;51.946;20.140;2023-04-24T14:23:03;11.52;;;3.55;;
21444;SDS011;10883;51.946;20.140;2023-04-24T14:25:29;4.55;;;2.72;;
21444;SDS011;10883;51.946;20.140;2023-04-24T14:27:55;7.38;;;3.08;;
21444;SDS011;10883;51.946;20.140;2023-04-24T14:30:21;3.65;;;2.65;;